Time;durP1;ratioP1;P1;durP2;ratioP2;P2;SDS_P1;SDS_P2;PMS_P1;PMS_P2;Temp;Humidity;BMP_temperature;BMP_pressure;BME280_temperature;BME280_humidity;BME280_pressure;Samples;Min_cycle;Max_cycle;Signal;HPM_P1;HPM_P2
2022/02/24 00:01:28;;;;;;;26.40;8.23;;;;;;;6.10;97.41;100847.56;5095195;28;20036;-75
2022/02/24 00:03:54;;;;;;;23.83;8.43;;;;;;;6.10;97.64;100836.53;5075964;28;20066;-75
2022/02/24 00:06:22;;;;;;;19.60;7.25;;;;;;;6.11;97.57;100832.72;5084123;28;20056;-75
2022/02/24 00:08:47;;;;;;;20.92;7.55;;;;;;;6.12;97.76;100837.13;5087165;28;20078;-75
2022/02/24 00:11:13;;;;;;;19.50;6.82;;;;;;;6.12;97.71;100831.63;5092572;28;20032;-75
2022/02/24 00:13:38;;;;;;;19.90;8.15;;;;;;;6.14;97.59;100832.19;5062068;28;20028;-75
2022/02/24 00:16:04;;;;;;;24.00;7.50;;;;;;;6.12;97.88;100831.63;5097332;28;20036;-75
2022/02/24 00:18:30;;;;;;;19.08;7.13;;;;;;;6.14;97.71;100851.50;5094829;28;20043;-75
2022/02/24 00:20:55;;;;;;;23.60;7.20;;;;;;;6.15;97.46;100844.88;5095954;28;20028;-75
2022/02/24 00:23:21;;;;;;;15.70;7.10;;;;;;;6.15;97.67;100839.38;5095498;28;20046;-75
2022/02/24 00:25:46;;;;;;;17.27;6.72;;;;;;;6.13;97.50;100828.63;5098411;28;20027;-75
2022/02/24 00:28:11;;;;;;;21.65;7.35;;;;;;;6.15;97.45;100820.06;5078501;28;20460;-75
2022/02/24 00:30:37;;;;;;;21.00;7.40;;;;;;;6.16;97.56;100824.50;5098675;28;20039;-75
2022/02/24 00:33:02;;;;;;;17.77;7.40;;;;;;;6.15;97.73;100820.91;5061857;28;20024;-75
2022/02/24 00:35:28;;;;;;;14.65;6.22;;;;;;;6.15;97.73;100814.56;5097134;28;20081;-75
2022/02/24 00:37:53;;;;;;;19.00;6.72;;;;;;;6.17;97.88;100806.88;5099139;28;20431;-75
2022/02/24 00:40:19;;;;;;;17.70;6.13;;;;;;;6.15;97.87;100807.09;5098828;28;20047;-75
2022/02/24 00:42:44;;;;;;;21.02;7.25;;;;;;;6.17;98.09;100804.09;5103889;28;20036;-75
2022/02/24 00:45:10;;;;;;;17.70;6.15;;;;;;;6.16;98.00;100807.97;5078129;28;20024;-75
2022/02/24 00:47:36;;;;;;;19.73;6.78;;;;;;;6.14;97.90;100802.69;5098000;28;20059;-75
2022/02/24 00:50:01;;;;;;;17.08;6.57;;;;;;;6.10;97.93;100796.03;5098179;28;20459;-75
2022/02/24 00:52:27;;;;;;;15.10;6.25;;;;;;;6.16;97.73;100794.19;5078193;28;20028;-75
2022/02/24 00:54:52;;;;;;;17.50;6.32;;;;;;;6.14;97.82;100797.19;5078222;28;20036;-75
2022/02/24 00:57:18;;;;;;;18.65;6.82;;;;;;;6.16;97.82;100788.66;5077660;28;20028;-75
2022/02/24 00:59:43;;;;;;;23.30;6.82;;;;;;;6.16;97.94;100791.41;5098818;28;20036;-75
2022/02/24 01:02:09;;;;;;;15.48;5.90;;;;;;;6.14;97.96;100779.81;5090363;28;20027;-75
2022/02/24 01:04:35;;;;;;;15.45;6.03;;;;;;;6.14;98.14;100783.38;5095680;28;20040;-75
2022/02/24 01:07:00;;;;;;;17.38;6.15;;;;;;;6.13;98.10;100783.63;5079508;28;20102;-75
2022/02/24 01:09:25;;;;;;;16.02;5.72;;;;;;;6.12;98.21;100781.97;5063024;28;20040;-75
2022/02/24 01:11:51;;;;;;;16.92;6.20;;;;;;;6.12;97.88;100784.72;5069073;28;20039;-75
2022/02/24 01:14:16;;;;;;;19.05;6.03;;;;;;;6.12;98.34;100787.50;5076366;28;20033;-75
2022/02/24 01:16:42;;;;;;;16.02;6.18;;;;;;;6.12;98.22;100777.28;5073470;28;20040;-75
2022/02/24 01:19:07;;;;;;;19.92;6.07;;;;;;;6.10;98.23;100776.75;5076281;28;20476;-75
2022/02/24 01:21:34;;;;;;;17.20;6.15;;;;;;;6.11;98.38;100763.78;5075628;28;20051;-75
2022/02/24 01:24:00;;;;;;;17.60;5.60;;;;;;;6.12;98.21;100765.44;5074418;28;20033;-75
2022/02/24 01:26:26;;;;;;;15.85;5.57;;;;;;;6.10;98.35;100756.56;5075769;28;20035;-75
2022/02/24 01:28:51;;;;;;;14.02;5.65;;;;;;;6.11;98.25;100755.50;5059511;28;20016;-75
2022/02/24 01:31:17;;;;;;;12.73;5.55;;;;;;;6.09;98.32;100752.16;5075707;28;20036;-75
2022/02/24 01:33:42;;;;;;;17.05;6.35;;;;;;;6.08;98.34;100759.59;5066085;28;20092;-75
2022/02/24 01:36:07;;;;;;;17.80;5.65;;;;;;;6.03;98.38;100757.63;5075793;28;20071;-75
2022/02/24 01:38:33;;;;;;;11.98;5.43;;;;;;;6.04;98.40;100753.78;5055275;28;20420;-75
2022/02/24 01:40:58;;;;;;;15.00;5.82;;;;;;;6.06;98.36;100766.47;5076968;28;20028;-75
2022/02/24 01:43:24;;;;;;;19.08;6.10;;;;;;;6.06;98.36;100760.97;5074201;28;20061;-75
2022/02/24 01:45:49;;;;;;;15.00;5.57;;;;;;;6.02;98.38;100764.22;5078764;28;20032;-75
2022/02/24 01:48:15;;;;;;;15.75;5.45;;;;;;;6.03;98.67;100759.53;5076519;28;20028;-75
2022/02/24 01:50:41;;;;;;;15.48;5.45;;;;;;;6.02;98.64;100752.38;5070116;28;20048;-75
2022/02/24 01:53:06;;;;;;;13.85;5.28;;;;;;;5.98;98.81;100760.31;5075332;28;20036;-75
2022/02/24 01:55:31;;;;;;;18.08;5.22;;;;;;;5.98;98.79;100753.97;5073703;28;20039;-75
2022/02/24 01:57:57;;;;;;;14.70;5.15;;;;;;;5.94;98.99;100742.63;5077181;28;20032;-75
2022/02/24 02:00:24;;;;;;;15.95;5.18;;;;;;;5.96;99.05;100740.47;5077624;28;20039;-75
2022/02/24 02:02:49;;;;;;;12.73;5.15;;;;;;;5.96;99.13;100743.22;5105495;28;20028;-75
2022/02/24 02:05:15;;;;;;;19.77;5.45;;;;;;;5.97;99.37;100742.13;5074197;28;20036;-75
2022/02/24 02:07:41;;;;;;;18.70;5.13;;;;;;;5.96;99.41;100732.19;5075236;28;20513;-75
2022/02/24 02:10:07;;;;;;;18.67;4.90;;;;;;;5.95;99.56;100732.44;5063408;28;20024;-75
2022/02/24 02:12:43;;;;;;;16.73;5.25;;;;;;;5.98;99.16;100729.16;5083394;28;20020;-75
2022/02/24 02:15:09;;;;;;;14.50;5.40;;;;;;;5.95;99.21;100730.50;5060164;28;20032;-75
2022/02/24 02:17:34;;;;;;;16.90;6.10;;;;;;;5.94;99.74;100728.84;5078227;28;20038;-75
2022/02/24 02:20:00;;;;;;;17.00;5.60;;;;;;;5.95;99.46;100713.13;5079579;28;20028;-75
2022/02/24 02:22:25;;;;;;;17.02;5.50;;;;;;;5.96;99.62;100712.88;5083971;28;20025;-75
2022/02/24 02:25:00;;;;;;;16.98;5.07;;;;;;;5.97;99.69;100710.97;5080964;28;20052;-75
2022/02/24 02:27:25;;;;;;;12.40;4.53;;;;;;;5.96;99.89;100701.00;5078714;28;20028;-75
2022/02/24 02:29:51;;;;;;;17.65;5.40;;;;;;;5.94;100.00;100693.00;5067187;28;20380;-75
2022/02/24 02:32:16;;;;;;;19.55;5.10;;;;;;;5.94;99.98;100693.00;5081857;28;20024;-75
2022/02/24 02:34:42;;;;;;;15.57;5.50;;;;;;;5.93;99.97;100685.81;5080495;28;20023;-75
2022/02/24 02:37:07;;;;;;;15.32;5.00;;;;;;;5.94;99.79;100687.50;5077625;28;20031;-75
2022/02/24 02:39:33;;;;;;;15.95;4.72;;;;;;;5.93;99.79;100679.44;5079051;28;20032;-75
2022/02/24 02:41:58;;;;;;;14.50;4.78;;;;;;;5.93;99.64;100676.69;5072770;28;20481;-75
2022/02/24 02:44:24;;;;;;;17.50;4.88;;;;;;;5.93;99.55;100660.13;5084949;28;20062;-75
2022/02/24 02:46:49;;;;;;;14.35;4.88;;;;;;;5.93;99.45;100673.94;5068031;28;20025;-75
2022/02/24 02:49:14;;;;;;;14.70;4.85;;;;;;;5.94;99.96;100667.38;5054660;28;20546;-75
2022/02/24 02:51:40;;;;;;;13.68;4.72;;;;;;;5.93;99.60;100657.38;5084268;28;20040;-75
2022/02/24 02:54:06;;;;;;;17.98;4.70;;;;;;;5.94;99.64;100661.84;5060375;28;20112;-75
2022/02/24 02:56:32;;;;;;;18.02;5.10;;;;;;;5.92;99.87;100650.22;5062117;28;20040;-75
2022/02/24 02:58:57;;;;;;;21.05;4.72;;;;;;;5.93;100.00;100658.25;5052700;28;20568;-75
2022/02/24 03:01:23;;;;;;;16.20;4.82;;;;;;;5.90;99.81;100655.97;5081875;28;20476;-75
2022/02/24 03:03:48;;;;;;;12.65;4.38;;;;;;;5.92;100.00;100655.72;5061788;28;20032;-75
2022/02/24 03:06:14;;;;;;;15.50;4.50;;;;;;;5.92;100.00;100655.72;5061311;28;20044;-75
2022/02/24 03:08:39;;;;;;;11.20;4.13;;;;;;;5.92;100.00;100651.03;5101840;28;20029;-75
2022/02/24 03:11:05;;;;;;;15.00;4.25;;;;;;;5.90;100.00;100646.88;5070498;28;20036;-75
2022/02/24 03:13:30;;;;;;;17.60;5.05;;;;;;;5.91;100.00;100646.63;5070436;28;20542;-75
2022/02/24 03:15:55;;;;;;;17.63;4.50;;;;;;;5.92;100.00;100634.50;5070537;28;20047;-75
2022/02/24 03:18:21;;;;;;;12.18;4.00;;;;;;;5.91;100.00;100626.50;5076400;28;20029;-75
2022/02/24 03:20:46;;;;;;;15.48;4.53;;;;;;;5.89;100.00;100620.41;5073983;28;20033;-75
2022/02/24 03:23:12;;;;;;;14.85;4.88;;;;;;;5.89;100.00;100626.75;5076612;28;20020;-75
2022/02/24 03:25:38;;;;;;;15.38;4.43;;;;;;;5.89;100.00;100623.19;5074910;28;20397;-75
2022/02/24 03:28:04;;;;;;;17.00;4.68;;;;;;;5.87;100.00;100614.31;5074687;28;20500;-75
2022/02/24 03:30:32;;;;;;;17.20;4.40;;;;;;;5.87;100.00;100608.81;5080268;28;20119;-75
2022/02/24 03:32:59;;;;;;;12.88;3.80;;;;;;;5.87;100.00;100606.88;5062703;28;20039;-75
2022/02/24 03:35:25;;;;;;;15.10;4.22;;;;;;;5.87;100.00;100606.88;5056249;28;20036;-75
2022/02/24 03:37:50;;;;;;;17.75;4.40;;;;;;;5.87;100.00;100615.16;5065031;28;20028;-75
2022/02/24 03:40:16;;;;;;;15.13;4.47;;;;;;;5.87;100.00;100611.56;5078171;28;20051;-75
2022/02/24 03:42:42;;;;;;;12.95;3.92;;;;;;;5.87;100.00;100604.13;5075916;28;20028;-75
2022/02/24 03:45:08;;;;;;;13.07;4.05;;;;;;;5.86;100.00;100610.75;5077216;28;20507;-75
2022/02/24 03:47:33;;;;;;;15.35;4.55;;;;;;;5.87;100.00;100600.53;5068316;28;20028;-75
2022/02/24 03:49:59;;;;;;;12.40;3.70;;;;;;;5.88;100.00;100593.94;5099567;28;20029;-75
2022/02/24 03:52:24;;;;;;;14.57;4.43;;;;;;;5.88;100.00;100597.53;5063227;28;20071;-75
2022/02/24 03:54:50;;;;;;;14.32;3.85;;;;;;;5.88;100.00;100589.28;5075526;28;20519;-75
2022/02/24 03:57:15;;;;;;;12.65;3.60;;;;;;;5.90;100.00;100592.56;5073396;28;20051;-75
2022/02/24 03:59:41;;;;;;;15.05;3.50;;;;;;;5.89;100.00;100581.81;5079775;28;20426;-75
2022/02/24 04:02:07;;;;;;;14.85;3.92;;;;;;;5.90;100.00;100577.97;5083555;28;20039;-75
2022/02/24 04:04:33;;;;;;;14.27;3.88;;;;;;;5.89;100.00;100579.06;5074806;28;20025;-75
2022/02/24 04:06:58;;;;;;;14.25;3.60;;;;;;;5.88;100.00;100575.50;5075078;28;20048;-75
2022/02/24 04:09:24;;;;;;;12.15;3.65;;;;;;;5.89;100.00;100584.59;5078595;28;20043;-75
2022/02/24 04:11:49;;;;;;;13.45;3.75;;;;;;;5.93;100.00;100592.09;5082323;28;20028;-75
2022/02/24 04:14:15;;;;;;;13.77;3.58;;;;;;;5.92;100.00;100584.88;5078055;28;20037;-75
2022/02/24 04:16:41;;;;;;;14.25;2.92;;;;;;;5.93;100.00;100588.47;5075205;28;20033;-75
2022/02/24 04:19:06;;;;;;;17.13;3.95;;;;;;;5.94;100.00;100587.44;5076787;28;20032;-74
2022/02/24 04:21:32;;;;;;;14.55;3.95;;;;;;;5.93;100.00;100581.06;5078441;28;20024;-75
2022/02/24 04:23:58;;;;;;;19.40;4.47;;;;;;;5.95;100.00;100578.06;5076350;28;20113;-75
2022/02/24 04:26:24;;;;;;;8.50;3.38;;;;;;;5.93;100.00;100581.06;5105477;28;20024;-75
2022/02/24 04:28:49;;;;;;;21.33;3.60;;;;;;;5.94;100.00;100579.16;5079394;28;20037;-75
2022/02/24 04:31:15;;;;;;;15.27;3.78;;;;;;;5.95;100.00;100584.38;5080638;28;20035;-75
2022/02/24 04:33:40;;;;;;;16.40;4.07;;;;;;;5.96;100.00;100577.81;5075435;28;20024;-75
2022/02/24 04:36:06;;;;;;;17.80;4.30;;;;;;;5.97;100.00;100578.63;5079235;28;20028;-75
2022/02/24 04:38:31;;;;;;;14.60;3.42;;;;;;;5.97;100.00;100584.97;5087349;28;20032;-75
2022/02/24 04:40:57;;;;;;;13.35;3.53;;;;;;;6.00;100.00;100576.16;5078614;28;20036;-75
2022/02/24 04:43:22;;;;;;;12.05;3.08;;;;;;;5.99;100.00;100574.53;5078951;28;20082;-75
2022/02/24 04:45:48;;;;;;;16.45;3.47;;;;;;;5.99;100.00;100581.94;5077590;28;20028;-75
2022/02/24 04:48:13;;;;;;;14.65;3.00;;;;;;;6.00;100.00;100565.16;5078378;28;20033;-75
2022/02/24 04:50:39;;;;;;;14.40;3.35;;;;;;;6.00;100.00;100576.16;5075627;28;20036;-75
2022/02/24 04:53:05;;;;;;;11.00;2.75;;;;;;;6.02;100.00;100573.16;5079883;28;20037;-75
2022/02/24 04:55:30;;;;;;;15.70;3.40;;;;;;;6.00;100.00;100565.16;5079022;28;20032;-75
2022/02/24 04:57:56;;;;;;;17.73;3.63;;;;;;;6.01;100.00;100566.78;5065534;28;20048;-75
2022/02/24 05:00:21;;;;;;;14.93;3.20;;;;;;;6.03;100.00;100559.09;5075418;28;20028;-75
2022/02/24 05:02:46;;;;;;;16.73;3.25;;;;;;;6.06;100.00;100557.75;5082674;28;20102;-75
2022/02/24 05:05:12;;;;;;;12.90;3.00;;;;;;;6.06;100.00;100552.22;5079680;28;20028;-75
2022/02/24 05:07:37;;;;;;;13.57;2.90;;;;;;;6.07;100.00;100553.06;5091002;28;20051;-75
2022/02/24 05:10:04;;;;;;;15.18;2.85;;;;;;;6.08;100.00;100549.22;5086144;28;20043;-75
2022/02/24 05:12:29;;;;;;;17.52;3.00;;;;;;;6.08;100.00;100543.72;5102822;28;20024;-75
2022/02/24 05:14:55;;;;;;;11.20;2.88;;;;;;;6.06;100.00;100546.72;5098331;28;20663;-75
2022/02/24 05:17:20;;;;;;;14.18;3.08;;;;;;;6.08;100.00;100547.28;5070352;28;20028;-75
2022/02/24 05:19:45;;;;;;;15.07;2.95;;;;;;;6.07;100.00;100547.53;5100471;28;20086;-75
2022/02/24 05:22:11;;;;;;;15.02;3.22;;;;;;;6.09;100.00;100546.19;5079113;28;20035;-75
2022/02/24 05:24:36;;;;;;;12.43;3.17;;;;;;;6.11;100.00;100543.19;5099932;28;20027;-75
2022/02/24 05:27:02;;;;;;;12.68;2.83;;;;;;;6.11;100.00;100541.25;5075881;28;20028;-75
2022/02/24 05:29:28;;;;;;;11.60;2.67;;;;;;;6.13;100.00;100543.72;5095315;28;20124;-75
2022/02/24 05:31:53;;;;;;;15.35;2.92;;;;;;;6.13;100.00;100541.81;5067080;28;20047;-75
2022/02/24 05:34:19;;;;;;;10.07;2.60;;;;;;;6.15;100.00;100536.84;5079241;28;20082;-75
2022/02/24 05:36:44;;;;;;;8.25;2.80;;;;;;;6.16;100.00;100534.97;5078678;28;20024;-75
2022/02/24 05:39:10;;;;;;;17.38;3.10;;;;;;;6.15;100.00;100541.53;5108017;27;20036;-75
2022/02/24 05:41:36;;;;;;;9.93;2.65;;;;;;;6.17;100.00;100540.19;5096480;28;20040;-75
2022/02/24 05:44:02;;;;;;;10.65;3.10;;;;;;;6.19;100.00;100545.47;5098173;28;20031;-75
2022/02/24 05:46:27;;;;;;;10.63;2.67;;;;;;;6.20;100.00;100541.59;5094754;28;20078;-75
2022/02/24 05:48:53;;;;;;;8.70;2.60;;;;;;;6.21;100.00;100546.84;5086350;28;20031;-75
2022/02/24 05:51:18;;;;;;;13.75;2.72;;;;;;;6.22;100.00;100545.75;5081333;28;20081;-75
2022/02/24 05:53:44;;;;;;;8.70;2.35;;;;;;;6.24;100.00;100548.22;5102998;28;20032;-75
2022/02/24 05:56:09;;;;;;;9.05;2.58;;;;;;;6.23;100.00;100544.63;5079878;28;20388;-75
2022/02/24 05:58:35;;;;;;;10.50;2.67;;;;;;;6.24;100.00;100545.47;5098393;28;20032;-75
2022/02/24 06:01:00;;;;;;;11.73;2.75;;;;;;;6.26;100.00;100541.34;5080430;28;20024;-75
2022/02/24 06:03:26;;;;;;;6.20;2.10;;;;;;;6.26;100.00;100543.28;5085548;28;20033;-75
2022/02/24 06:05:53;;;;;;;11.70;2.40;;;;;;;6.26;100.00;100543.28;5094109;28;20025;-75
2022/02/24 06:08:19;;;;;;;7.88;2.65;;;;;;;6.28;100.00;100549.38;5094478;28;20021;-75
2022/02/24 06:10:45;;;;;;;11.88;2.70;;;;;;;6.30;100.00;100544.44;5095954;28;20042;-75
2022/02/24 06:13:10;;;;;;;10.75;2.35;;;;;;;6.31;100.00;100536.97;5079211;28;20046;-75
2022/02/24 06:15:36;;;;;;;6.50;2.35;;;;;;;6.29;100.00;100531.72;5078815;28;20662;-75
2022/02/24 06:18:08;;;;;;;7.40;2.20;;;;;;;6.30;100.00;100530.66;5097652;28;20032;-75
2022/02/24 06:20:33;;;;;;;10.50;2.70;;;;;;;6.32;100.00;100527.59;5084585;28;20188;-75
2022/02/24 06:22:59;;;;;;;7.18;2.08;;;;;;;6.31;100.00;100526.78;5088586;28;20032;-75
2022/02/24 06:25:24;;;;;;;11.43;3.03;;;;;;;6.30;100.00;100521.53;5086584;28;20040;-75
2022/02/24 06:27:50;;;;;;;10.40;2.50;;;;;;;6.31;100.00;100515.75;5096160;28;20035;-75
2022/02/24 06:30:15;;;;;;;13.48;2.70;;;;;;;6.29;100.00;100515.16;5061792;28;20096;-75
2022/02/24 06:32:41;;;;;;;9.40;2.90;;;;;;;6.25;100.00;100527.84;5100481;28;20481;-75
2022/02/24 06:35:08;;;;;;;6.53;2.28;;;;;;;6.24;100.00;100531.69;5088633;28;20035;-75
2022/02/24 06:37:33;;;;;;;8.43;2.13;;;;;;;6.19;100.00;100535.25;5099111;28;20028;-76
2022/02/24 06:39:59;;;;;;;10.85;2.47;;;;;;;6.19;100.00;100523.41;5076706;28;20027;-75
2022/02/24 06:42:24;;;;;;;5.40;2.20;;;;;;;6.21;100.00;100526.69;5075056;28;20028;-75
2022/02/24 06:44:50;;;;;;;8.68;2.60;;;;;;;6.19;100.00;100517.88;5079963;28;20081;-75
2022/02/24 06:47:15;;;;;;;8.98;2.22;;;;;;;6.15;100.00;100530.50;5084948;28;20380;-75
2022/02/24 06:49:44;;;;;;;6.90;1.92;;;;;;;6.13;100.00;100535.44;5079268;28;20032;-75
2022/02/24 06:52:10;;;;;;;6.45;2.00;;;;;;;6.10;100.00;100530.47;5096689;28;20032;-75
2022/02/24 06:54:35;;;;;;;7.20;2.00;;;;;;;6.10;100.00;100528.56;5079743;28;20027;-75
2022/02/24 06:57:06;;;;;;;6.78;2.00;;;;;;;6.09;100.00;100534.34;5084186;28;20044;-75
2022/02/24 06:59:32;;;;;;;6.28;2.00;;;;;;;6.08;100.00;100544.53;5096093;28;20023;-75
2022/02/24 07:01:57;;;;;;;6.25;1.90;;;;;;;6.04;100.00;100538.72;5075638;28;20037;-75
2022/02/24 07:04:23;;;;;;;8.20;2.40;;;;;;;6.01;100.00;100550.25;5098302;28;20039;-75
2022/02/24 07:06:48;;;;;;;8.65;2.00;;;;;;;5.99;100.00;100546.09;5098767;28;20066;-75
2022/02/24 07:09:14;;;;;;;9.98;2.30;;;;;;;6.00;100.00;100543.09;5076369;28;20028;-75
2022/02/24 07:11:39;;;;;;;9.65;2.20;;;;;;;6.00;100.00;100536.75;5049229;28;20024;-75
2022/02/24 07:14:05;;;;;;;10.30;2.03;;;;;;;5.96;100.00;100547.47;5098831;28;20043;-75
2022/02/24 07:16:32;;;;;;;4.80;2.00;;;;;;;5.95;100.00;100543.03;5063594;28;20032;-75
2022/02/24 07:18:57;;;;;;;7.20;2.10;;;;;;;5.97;100.00;100543.63;5078014;28;20111;-75
2022/02/24 07:21:23;;;;;;;8.38;1.92;;;;;;;5.96;100.00;100539.22;5094423;28;20032;-75
2022/02/24 07:23:48;;;;;;;6.05;2.08;;;;;;;5.94;100.00;100537.81;5097307;28;20055;-74
2022/02/24 07:26:14;;;;;;;7.35;2.03;;;;;;;5.94;100.00;100533.13;5097669;28;20282;-72
2022/02/24 07:28:39;;;;;;;8.75;2.55;;;;;;;5.96;100.00;100530.09;5064743;28;20032;-72
2022/02/24 07:31:05;;;;;;;9.77;2.47;;;;;;;5.96;100.00;100532.84;5065743;28;20027;-73
2022/02/24 07:33:30;;;;;;;8.35;2.70;;;;;;;5.92;100.00;100527.00;5080630;28;20031;-72
2022/02/24 07:35:56;;;;;;;9.77;2.72;;;;;;;5.89;100.00;100523.94;5074225;28;20029;-72
2022/02/24 07:38:21;;;;;;;7.47;2.70;;;;;;;5.87;100.00;100526.94;5100258;28;20036;-72
2022/02/24 07:40:47;;;;;;;9.93;3.22;;;;;;;5.88;100.00;100523.13;5102423;28;20040;-72
2022/02/24 07:43:12;;;;;;;11.02;3.30;;;;;;;5.89;100.00;100511.00;5100963;28;20032;-72
2022/02/24 07:45:38;;;;;;;8.50;3.08;;;;;;;5.86;100.00;100505.19;5067031;28;20034;-72
2022/02/24 07:48:03;;;;;;;9.82;3.42;;;;;;;5.87;100.00;100504.06;5069299;28;20070;-72
2022/02/24 07:50:29;;;;;;;13.70;4.03;;;;;;;5.90;100.00;100509.06;5062024;28;20039;-72
2022/02/24 07:52:54;;;;;;;14.13;3.50;;;;;;;5.92;100.00;100513.22;5066462;28;20150;-72
2022/02/24 07:55:20;;;;;;;11.05;3.15;;;;;;;5.94;100.00;100510.25;5098735;28;20040;-72
2022/02/24 07:57:45;;;;;;;14.45;3.38;;;;;;;5.97;100.00;100505.03;5097031;28;20036;-72
2022/02/24 08:00:15;;;;;;;12.80;3.13;;;;;;;6.03;100.00;100511.41;5094735;28;20031;-72
2022/02/24 08:02:44;;;;;;;12.68;3.35;;;;;;;6.10;100.00;100508.41;5084631;28;20040;-72
2022/02/24 08:05:10;;;;;;;8.73;3.00;;;;;;;6.16;100.00;100504.63;5101293;28;20032;-72
2022/02/24 08:07:35;;;;;;;11.27;3.30;;;;;;;6.24;100.00;100506.84;5077945;28;20044;-72
2022/02/24 08:10:01;;;;;;;11.45;2.97;;;;;;;6.30;100.00;100508.56;5085897;28;20550;-72
2022/02/24 08:12:44;;;;;;;14.50;3.33;;;;;;;6.40;100.00;100511.38;5061815;28;20036;-72
2022/02/24 08:15:16;;;;;;;12.23;3.47;;;;;;;6.51;100.00;100514.22;5082606;28;20016;-73
2022/02/24 08:17:42;;;;;;;11.65;2.90;;;;;;;6.62;100.00;100521.44;5095779;28;20111;-72
2022/02/24 08:20:08;;;;;;;13.80;3.65;;;;;;;6.72;100.00;100527.03;5088335;28;20550;-72
2022/02/24 08:22:38;;;;;;;9.90;2.92;;;;;;;6.83;100.00;100523.22;5085451;28;20045;-73
2022/02/24 08:25:05;;;;;;;15.68;2.85;;;;;;;6.93;100.00;100517.72;5075662;28;20404;-73
2022/02/24 08:27:30;;;;;;;14.80;3.25;;;;;;;7.06;100.00;100510.06;5080417;28;20111;-73
2022/02/24 08:29:57;;;;;;;7.55;2.70;;;;;;;7.16;100.00;100507.34;5089626;28;20032;-73
2022/02/24 08:32:24;;;;;;;13.55;3.17;;;;;;;7.26;100.00;100503.75;5112145;27;20032;-73
2022/02/24 08:34:49;;;;;;;18.13;3.53;;;;;;;7.37;100.00;100511.81;5085551;28;20042;-72
2022/02/24 08:37:15;;;;;;;8.80;2.97;;;;;;;7.48;100.00;100507.13;5076143;28;20032;-72
2022/02/24 08:39:40;;;;;;;11.18;2.60;;;;;;;7.61;100.00;100505.78;5068712;28;20032;-73
2022/02/24 08:42:06;;;;;;;13.98;2.97;;;;;;;7.72;100.00;100504.69;5071460;28;20040;-73
2022/02/24 08:44:32;;;;;;;9.68;2.45;;;;;;;7.87;100.00;100497.50;5095349;28;20024;-73
2022/02/24 08:46:59;;;;;;;11.00;2.20;;;;;;;7.99;100.00;100501.63;5097171;28;20032;-73
2022/02/24 08:49:24;;;;;;;12.73;2.42;;;;;;;8.16;100.00;100500.50;5095939;28;20035;-73
2022/02/24 08:51:50;;;;;;;12.75;2.70;;;;;;;8.31;100.00;100502.44;5098929;28;20426;-73
2022/02/24 08:54:16;;;;;;;11.80;2.53;;;;;;;8.44;100.00;100496.34;5098022;28;20112;-73
2022/02/24 08:56:42;;;;;;;11.30;2.40;;;;;;;8.59;100.00;100503.81;5060706;28;20041;-73
2022/02/24 08:59:07;;;;;;;8.20;2.17;;;;;;;8.70;100.00;100502.66;5098141;28;20031;-73
2022/02/24 09:01:33;;;;;;;13.68;2.20;;;;;;;8.80;100.00;100504.56;5100207;28;20039;-72
2022/02/24 09:03:58;;;;;;;11.68;2.42;;;;;;;8.88;100.00;100496.50;5100838;28;20028;-73
2022/02/24 09:06:24;;;;;;;11.45;1.92;;;;;;;8.95;100.00;100487.91;5044939;28;20044;-73
2022/02/24 09:08:49;;;;;;;10.98;2.10;;;;;;;9.02;100.00;100493.13;5086389;28;20028;-73
2022/02/24 09:11:17;;;;;;;9.90;2.13;;;;;;;9.08;100.00;100484.50;5098486;28;20039;-72
2022/02/24 09:13:43;;;;;;;11.73;2.28;;;;;;;9.12;100.00;100491.13;5099282;28;20024;-73
2022/02/24 09:16:09;;;;;;;14.95;2.85;;;;;;;9.17;100.00;100490.28;5067654;28;20477;-73
2022/02/24 09:18:34;;;;;;;13.57;2.65;;;;;;;9.20;100.00;100481.41;5078696;28;20041;-73
2022/02/24 09:21:00;;;;;;;9.52;2.45;;;;;;;9.24;100.00;100484.41;5081938;28;20028;-73
2022/02/24 09:23:26;;;;;;;8.88;2.63;;;;;;;9.27;100.00;100484.66;5078955;28;20036;-73
2022/02/24 09:25:52;;;;;;;11.23;2.78;;;;;;;9.33;100.00;100491.00;5100963;28;20533;-73
2022/02/24 09:28:17;;;;;;;12.63;2.28;;;;;;;9.37;100.00;100478.25;5102108;28;20103;-73
2022/02/24 09:30:43;;;;;;;14.52;2.80;;;;;;;9.43;100.00;100479.88;5093029;28;20484;-73
2022/02/24 09:33:09;;;;;;;12.32;2.10;;;;;;;9.48;100.00;100481.78;5061954;28;20043;-73
2022/02/24 09:35:35;;;;;;;14.82;2.45;;;;;;;9.52;100.00;100485.63;5096201;28;20028;-73
2022/02/24 09:38:01;;;;;;;8.05;2.35;;;;;;;9.56;100.00;100481.19;5075153;28;20028;-73
2022/02/24 09:40:29;;;;;;;11.40;1.88;;;;;;;9.60;100.00;100488.59;5081240;28;20039;-73
2022/02/24 09:42:54;;;;;;;15.18;1.90;;;;;;;9.65;100.00;100482.22;5078620;28;20079;-73
2022/02/24 09:45:20;;;;;;;9.90;1.83;;;;;;;9.70;100.00;100476.63;5094176;28;20459;-73
2022/02/24 09:47:45;;;;;;;10.23;2.30;;;;;;;9.74;100.00;100480.47;5085498;28;20030;-73
2022/02/24 09:50:11;;;;;;;8.52;1.88;;;;;;;9.79;100.00;100487.94;5079919;28;20060;-73
2022/02/24 09:52:37;;;;;;;14.23;2.08;;;;;;;9.82;100.00;100476.25;5100287;28;20036;-73
2022/02/24 09:55:03;;;;;;;11.77;2.10;;;;;;;9.85;100.00;100486.78;5080043;28;20062;-73
2022/02/24 09:57:28;;;;;;;17.83;2.70;;;;;;;9.89;100.00;100475.91;5099040;28;20024;-73
2022/02/24 09:59:54;;;;;;;14.38;2.42;;;;;;;9.91;100.00;100482.81;5078421;28;20419;-73
2022/02/24 10:02:20;;;;;;;14.23;2.60;;;;;;;9.92;100.00;100487.28;5078375;28;20059;-73
2022/02/24 10:05:08;;;;;;;17.58;2.67;;;;;;;9.94;100.00;100478.66;5059878;28;20084;-73
2022/02/24 10:07:38;;;;;;;14.00;2.83;;;;;;;9.94;100.00;100473.91;5070042;28;20048;-73
2022/02/24 10:10:31;;;;;;;6.55;1.30;;;;;;;9.93;100.00;100493.66;5110975;27;20035;-73
2022/02/24 10:13:07;;;;;;;7.43;2.25;;;;;;;9.92;100.00;100492.81;5081321;28;20419;-73
2022/02/24 10:15:33;;;;;;;16.30;2.33;;;;;;;9.92;100.00;100492.81;5079053;28;20030;-73
2022/02/24 10:18:11;;;;;;;13.13;2.20;;;;;;;9.90;100.00;100499.78;5098163;28;20484;-73
2022/02/24 10:20:44;;;;;;;11.68;1.67;;;;;;;9.87;100.00;100484.53;5074976;28;20052;-73
2022/02/24 10:23:10;;;;;;;11.10;2.05;;;;;;;9.88;100.00;100493.69;5092656;28;20036;-73
2022/02/24 10:25:42;;;;;;;13.35;2.28;;;;;;;9.87;100.00;100492.88;5098138;28;20036;-73
2022/02/24 10:28:09;;;;;;;11.10;2.17;;;;;;;9.86;100.00;100493.97;5087844;28;20047;-73
2022/02/24 10:30:34;;;;;;;11.23;1.55;;;;;;;9.88;100.00;100502.00;5074419;28;20024;-73
2022/02/24 10:33:01;;;;;;;9.05;1.48;;;;;;;9.87;100.00;100503.97;5097778;28;20039;-73
2022/02/24 10:35:40;;;;;;;11.10;1.67;;;;;;;9.87;100.00;100505.91;5059588;28;20097;-73
2022/02/24 10:38:10;;;;;;;10.85;1.77;;;;;;;9.87;100.00;100511.47;5062840;28;20682;-73
2022/02/24 10:40:42;;;;;;;10.38;2.55;;;;;;;9.88;100.00;100516.69;5077814;28;20031;-73
2022/02/24 10:43:18;;;;;;;11.18;1.70;;;;;;;9.89;100.00;100520.28;5079029;28;20530;-73
2022/02/24 10:46:08;;;;;;;9.68;1.65;;;;;;;9.87;100.00;100520.59;5096235;28;20122;-73
2022/02/24 10:48:51;;;;;;;11.20;2.00;;;;;;;9.85;100.00;100531.16;5067918;28;20064;-73
2022/02/24 10:51:22;;;;;;;12.20;1.65;;;;;;;9.81;100.00;100560.59;5064592;28;20032;-73
2022/02/24 10:53:59;;;;;;;13.10;2.13;;;;;;;9.78;100.00;100592.50;5067366;28;20024;-73
2022/02/24 10:56:25;;;;;;;9.10;2.08;;;;;;;9.75;100.00;100603.31;5080072;28;20039;-73
2022/02/24 10:58:50;;;;;;;6.88;1.08;;;;;;;9.69;100.00;100612.78;5082518;28;20028;-73
2022/02/24 11:01:18;;;;;;;5.03;0.82;;;;;;;9.58;100.00;100632.28;5094471;28;20039;-74
2022/02/24 11:03:45;;;;;;;5.35;1.00;;;;;;;9.48;100.00;100637.03;5072788;28;20042;-73
2022/02/24 11:06:12;;;;;;;3.63;0.90;;;;;;;9.45;100.00;100634.84;5091628;28;20134;-73
2022/02/24 11:08:38;;;;;;;4.45;1.20;;;;;;;9.34;100.00;100643.19;5076707;28;20020;-73
2022/02/24 11:11:04;;;;;;;3.78;0.80;;;;;;;9.33;100.00;100652.63;5077911;28;20035;-74
2022/02/24 11:13:29;;;;;;;4.95;0.95;;;;;;;9.23;100.00;100644.31;5063947;28;20024;-76
2022/02/24 11:15:58;;;;;;;5.10;0.80;;;;;;;9.20;100.00;100658.75;5063313;28;20125;-73
2022/02/24 11:18:24;;;;;;;4.78;0.73;;;;;;;9.18;100.00;100642.38;5076650;28;20024;-73